Time;durP1;ratioP1;P1;durP2;ratioP2;P2;SDS_P1;SDS_P2;PMS_P1;PMS_P2;Temp;Humidity;BMP_temperature;BMP_pressure;BME280_temperature;BME280_humidity;BME280_pressure;Samples;Min_cycle;Max_cycle;Signal;HPM_P1;HPM_P2
2023/12/16 00:01:29;;;;;;;12.60;3.58;;;;;;;;;;4991649;28;20533;-46
2023/12/16 00:03:56;;;;;;;12.40;3.70;;;;;;;;;;4982633;28;20037;-49
2023/12/16 00:06:24;;;;;;;14.98;4.07;;;;;;;;;;4995141;28;20111;-45
2023/12/16 00:08:52;;;;;;;16.08;3.35;;;;;;;;;;4993407;28;20029;-49
2023/12/16 00:11:20;;;;;;;14.75;3.97;;;;;;;;;;4976768;28;20037;-46
2023/12/16 00:13:49;;;;;;;15.40;3.63;;;;;;;;;;4995900;28;20099;-49
2023/12/16 00:16:17;;;;;;;15.67;4.07;;;;;;;;;;4988179;28;20048;-47
2023/12/16 00:18:45;;;;;;;10.88;3.42;;;;;;;;;;4990463;28;20037;-45
2023/12/16 00:21:13;;;;;;;11.00;4.35;;;;;;;;;;4992978;28;20114;-45
2023/12/16 00:23:40;;;;;;;10.80;3.78;;;;;;;;;;4996506;28;20624;-47
2023/12/16 00:26:08;;;;;;;12.77;4.38;;;;;;;;;;4989352;28;20041;-45
2023/12/16 00:28:36;;;;;;;12.77;3.97;;;;;;;;;;4986882;28;20041;-48
2023/12/16 00:31:06;;;;;;;17.30;4.70;;;;;;;;;;4998012;28;20034;-48
2023/12/16 00:33:34;;;;;;;15.77;4.18;;;;;;;;;;4986605;28;20078;-48
2023/12/16 00:36:02;;;;;;;17.35;5.47;;;;;;;;;;4994532;28;20645;-46
2023/12/16 00:38:30;;;;;;;16.83;4.30;;;;;;;;;;4989086;28;20049;-45
2023/12/16 00:40:58;;;;;;;14.67;4.67;;;;;;;;;;4986283;28;20060;-48
2023/12/16 00:43:26;;;;;;;13.70;4.68;;;;;;;;;;4991370;28;20041;-45
2023/12/16 00:45:55;;;;;;;18.95;4.90;;;;;;;;;;4984231;28;20609;-47
2023/12/16 00:48:24;;;;;;;19.98;5.60;;;;;;;;;;4993116;28;20049;-49
2023/12/16 00:50:52;;;;;;;14.95;4.22;;;;;;;;;;4979095;28;20100;-47
2023/12/16 00:53:19;;;;;;;15.10;4.63;;;;;;;;;;4998403;28;20057;-49
2023/12/16 00:55:47;;;;;;;12.60;4.93;;;;;;;;;;4985183;28;20534;-47
2023/12/16 00:58:15;;;;;;;14.90;4.43;;;;;;;;;;4995574;28;21259;-46
2023/12/16 01:00:43;;;;;;;14.13;4.82;;;;;;;;;;4981689;28;20091;-46
2023/12/16 01:03:11;;;;;;;15.68;4.68;;;;;;;;;;4996028;28;20049;-47
2023/12/16 01:05:40;;;;;;;17.23;5.20;;;;;;;;;;4981589;28;20048;-49
2023/12/16 01:08:08;;;;;;;20.73;5.43;;;;;;;;;;4994303;28;20046;-51
2023/12/16 01:10:36;;;;;;;15.15;4.90;;;;;;;;;;4993037;28;20287;-48
2023/12/16 01:13:04;;;;;;;14.95;5.82;;;;;;;;;;4989209;28;20053;-46
2023/12/16 01:15:32;;;;;;;12.52;4.90;;;;;;;;;;5012694;28;20046;-45
2023/12/16 01:17:59;;;;;;;15.27;5.27;;;;;;;;;;4996614;28;20048;-49
2023/12/16 01:20:28;;;;;;;16.45;4.38;;;;;;;;;;5001055;28;20034;-50
2023/12/16 01:22:57;;;;;;;14.15;4.15;;;;;;;;;;4991798;28;20041;-46
2023/12/16 01:25:25;;;;;;;15.18;4.00;;;;;;;;;;4991669;28;20044;-46
2023/12/16 01:27:53;;;;;;;18.90;4.47;;;;;;;;;;5006271;28;20160;-49
2023/12/16 01:30:21;;;;;;;11.77;4.20;;;;;;;;;;4990821;28;20046;-49
2023/12/16 01:32:49;;;;;;;13.90;4.15;;;;;;;;;;4998861;28;20092;-46
2023/12/16 01:35:16;;;;;;;13.90;3.97;;;;;;;;;;4997738;28;20919;-48
2023/12/16 01:37:44;;;;;;;14.13;3.70;;;;;;;;;;4998431;28;20463;-46
2023/12/16 01:40:13;;;;;;;12.15;4.20;;;;;;;;;;4997031;28;20400;-49
2023/12/16 01:42:42;;;;;;;15.13;4.30;;;;;;;;;;4993419;28;20686;-47
2023/12/16 01:45:09;;;;;;;18.48;5.25;;;;;;;;;;5011003;28;20120;-47
2023/12/16 01:47:38;;;;;;;12.07;3.78;;;;;;;;;;4992718;28;20123;-51
2023/12/16 01:50:06;;;;;;;13.63;3.65;;;;;;;;;;5008392;28;20103;-50
2023/12/16 01:52:35;;;;;;;14.52;4.00;;;;;;;;;;4990918;28;20573;-46
2023/12/16 01:55:07;;;;;;;13.60;4.00;;;;;;;;;;5015925;28;20072;-46
2023/12/16 01:57:38;;;;;;;13.60;4.00;;;;;;;;;;4996865;28;20037;-47
2023/12/16 02:00:09;;;;;;;12.50;3.67;;;;;;;;;;5006700;28;20099;-46
2023/12/16 02:02:39;;;;;;;12.40;3.78;;;;;;;;;;4980613;28;20041;-47
2023/12/16 02:05:07;;;;;;;11.90;4.22;;;;;;;;;;4971859;28;20049;-49
2023/12/16 02:07:35;;;;;;;15.53;4.20;;;;;;;;;;4971979;28;20045;-48
2023/12/16 02:10:03;;;;;;;13.35;4.28;;;;;;;;;;4962031;28;20049;-49
2023/12/16 02:12:32;;;;;;;10.65;3.60;;;;;;;;;;4980996;28;20274;-47
2023/12/16 02:15:02;;;;;;;12.00;3.60;;;;;;;;;;4982956;28;20038;-48
2023/12/16 02:17:29;;;;;;;7.88;3.35;;;;;;;;;;4966319;28;20049;-50
2023/12/16 02:20:00;;;;;;;10.33;3.27;;;;;;;;;;4993041;28;20069;-47
2023/12/16 02:22:28;;;;;;;11.88;3.47;;;;;;;;;;4976048;28;20096;-48
2023/12/16 02:25:00;;;;;;;10.95;3.78;;;;;;;;;;4985403;28;20045;-49
2023/12/16 02:27:30;;;;;;;10.10;4.18;;;;;;;;;;4975838;28;21942;-46
2023/12/16 02:29:57;;;;;;;11.57;3.85;;;;;;;;;;4976185;28;20091;-46
2023/12/16 02:32:25;;;;;;;11.77;3.90;;;;;;;;;;4973063;28;20775;-46
2023/12/16 02:34:53;;;;;;;10.75;3.58;;;;;;;;;;4987777;28;20557;-46
2023/12/16 02:37:21;;;;;;;11.10;4.10;;;;;;;;;;4978468;28;20034;-48
2023/12/16 02:39:49;;;;;;;12.05;3.90;;;;;;;;;;4976439;28;20038;-45
2023/12/16 02:42:18;;;;;;;8.70;3.70;;;;;;;;;;4982349;28;20042;-46
2023/12/16 02:44:46;;;;;;;10.53;3.43;;;;;;;;;;4982166;28;20045;-51
2023/12/16 02:47:14;;;;;;;13.02;3.33;;;;;;;;;;4971494;28;20090;-48
2023/12/16 02:49:41;;;;;;;11.93;3.72;;;;;;;;;;4988675;28;20045;-50
2023/12/16 02:52:09;;;;;;;13.02;4.20;;;;;;;;;;4974758;28;20459;-49
2023/12/16 02:54:37;;;;;;;9.30;3.47;;;;;;;;;;4986484;28;20072;-48
2023/12/16 02:57:05;;;;;;;11.87;3.67;;;;;;;;;;4968938;28;20096;-47
2023/12/16 02:59:34;;;;;;;9.55;4.05;;;;;;;;;;4991865;28;20608;-47
2023/12/16 03:02:02;;;;;;;8.52;3.35;;;;;;;;;;4955116;28;20033;-48
2023/12/16 03:04:30;;;;;;;10.23;3.80;;;;;;;;;;4980807;28;20419;-46
2023/12/16 03:06:58;;;;;;;11.90;3.50;;;;;;;;;;4984708;28;20042;-48
2023/12/16 03:09:26;;;;;;;8.10;3.50;;;;;;;;;;4968418;28;20046;-47
2023/12/16 03:11:54;;;;;;;11.38;3.50;;;;;;;;;;4986715;28;20038;-47
2023/12/16 03:14:22;;;;;;;12.02;3.60;;;;;;;;;;4979830;28;20034;-48
2023/12/16 03:16:51;;;;;;;9.35;3.63;;;;;;;;;;4973126;28;20046;-46
2023/12/16 03:19:19;;;;;;;11.75;3.50;;;;;;;;;;4978091;28;20056;-46
2023/12/16 03:21:48;;;;;;;10.03;3.67;;;;;;;;;;4962742;28;20049;-48
2023/12/16 03:24:15;;;;;;;9.80;3.30;;;;;;;;;;4980895;28;20121;-47
2023/12/16 03:26:44;;;;;;;7.90;3.28;;;;;;;;;;4980768;28;20583;-49
2023/12/16 03:29:12;;;;;;;10.02;3.97;;;;;;;;;;4977579;28;20065;-46
2023/12/16 03:31:40;;;;;;;7.43;3.40;;;;;;;;;;4992797;28;20096;-47
2023/12/16 03:34:09;;;;;;;9.67;3.77;;;;;;;;;;4975156;28;20046;-52
2023/12/16 03:36:36;;;;;;;8.82;3.50;;;;;;;;;;4979844;28;20057;-49
2023/12/16 03:39:04;;;;;;;9.85;3.53;;;;;;;;;;4978725;28;20054;-49
2023/12/16 03:41:34;;;;;;;8.40;2.60;;;;;;;;;;4983702;28;20049;-47
2023/12/16 03:44:01;;;;;;;9.57;2.88;;;;;;;;;;4973880;28;20129;-50
2023/12/16 03:46:29;;;;;;;7.73;2.97;;;;;;;;;;4983465;28;20100;-47
2023/12/16 03:48:57;;;;;;;10.45;3.35;;;;;;;;;;4975848;28;20042;-47
2023/12/16 03:51:26;;;;;;;9.32;3.45;;;;;;;;;;4989541;28;20038;-48
2023/12/16 03:53:53;;;;;;;7.05;2.80;;;;;;;;;;4974481;28;20042;-47
2023/12/16 03:56:21;;;;;;;7.88;3.20;;;;;;;;;;4976695;28;20129;-47
2023/12/16 03:58:49;;;;;;;8.40;3.10;;;;;;;;;;4978483;28;20116;-47
2023/12/16 04:01:16;;;;;;;9.73;2.90;;;;;;;;;;4973637;28;20100;-47
2023/12/16 04:03:48;;;;;;;9.23;2.88;;;;;;;;;;4983837;28;20088;-49
2023/12/16 04:06:15;;;;;;;7.10;2.78;;;;;;;;;;4984869;28;20042;-49
2023/12/16 04:08:45;;;;;;;8.18;2.80;;;;;;;;;;4984379;28;20057;-47
2023/12/16 04:11:12;;;;;;;8.00;2.87;;;;;;;;;;4949222;28;20045;-47
2023/12/16 04:13:41;;;;;;;7.03;2.58;;;;;;;;;;4981701;28;20042;-48
2023/12/16 04:16:09;;;;;;;7.75;2.92;;;;;;;;;;4976314;28;20676;-48
2023/12/16 04:18:37;;;;;;;8.30;3.00;;;;;;;;;;4981266;28;20034;-47
2023/12/16 04:21:05;;;;;;;7.35;2.72;;;;;;;;;;4959089;28;21043;-50
2023/12/16 04:23:33;;;;;;;8.67;2.63;;;;;;;;;;4991670;28;20057;-48
2023/12/16 04:26:02;;;;;;;7.78;2.65;;;;;;;;;;4973325;28;20042;-48
2023/12/16 04:28:34;;;;;;;8.63;2.60;;;;;;;;;;4990890;28;20038;-47
2023/12/16 04:31:02;;;;;;;7.38;2.50;;;;;;;;;;4989625;28;20034;-47
2023/12/16 04:33:30;;;;;;;8.50;2.55;;;;;;;;;;4974062;28;20117;-50
2023/12/16 04:35:58;;;;;;;7.63;1.90;;;;;;;;;;4982226;28;20129;-47
2023/12/16 04:38:26;;;;;;;6.32;2.08;;;;;;;;;;4985173;28;20493;-48
2023/12/16 04:40:54;;;;;;;6.95;2.00;;;;;;;;;;4972357;28;20897;-48
2023/12/16 04:43:23;;;;;;;6.20;2.10;;;;;;;;;;4986303;28;20064;-52
2023/12/16 04:45:51;;;;;;;6.35;2.00;;;;;;;;;;4969195;28;20914;-48
2023/12/16 04:48:18;;;;;;;7.97;1.73;;;;;;;;;;4989236;28;20050;-48
2023/12/16 04:50:46;;;;;;;6.43;2.00;;;;;;;;;;4973797;28;21717;-47
2023/12/16 04:53:14;;;;;;;9.40;2.08;;;;;;;;;;4988086;28;20081;-50
2023/12/16 04:55:41;;;;;;;9.10;2.40;;;;;;;;;;4974665;28;20050;-46
2023/12/16 04:58:20;;;;;;;9.73;2.20;;;;;;;;;;4993645;28;20073;-48
2023/12/16 05:00:49;;;;;;;5.97;1.90;;;;;;;;;;4966612;28;20341;-49
2023/12/16 05:03:16;;;;;;;7.18;2.20;;;;;;;;;;4988652;28;20049;-46
2023/12/16 05:05:44;;;;;;;5.82;2.22;;;;;;;;;;4968969;28;20331;-46
2023/12/16 05:08:14;;;;;;;7.15;2.25;;;;;;;;;;4988848;28;20041;-47
2023/12/16 05:10:41;;;;;;;7.75;1.95;;;;;;;;;;4980295;28;20054;-49
2023/12/16 05:13:10;;;;;;;5.90;2.43;;;;;;;;;;4977664;28;20967;-47
2023/12/16 05:15:38;;;;;;;7.05;2.20;;;;;;;;;;4983524;28;20052;-50
2023/12/16 05:18:08;;;;;;;6.78;2.40;;;;;;;;;;4976017;28;20056;-49
2023/12/16 05:20:36;;;;;;;6.93;2.22;;;;;;;;;;4980673;28;20038;-51
2023/12/16 05:23:05;;;;;;;7.28;2.28;;;;;;;;;;4972778;28;20045;-48
2023/12/16 05:25:32;;;;;;;6.83;2.67;;;;;;;;;;4983683;28;20046;-47
2023/12/16 05:28:00;;;;;;;7.45;2.22;;;;;;;;;;4981421;28;20096;-51
2023/12/16 05:30:28;;;;;;;6.95;2.55;;;;;;;;;;4989304;28;20038;-51
2023/12/16 05:32:55;;;;;;;5.80;2.00;;;;;;;;;;4985477;28;20041;-47
2023/12/16 05:35:25;;;;;;;7.22;2.40;;;;;;;;;;4977634;28;20128;-48
2023/12/16 05:38:10;;;;;;;7.00;2.20;;;;;;;;;;4982221;28;20093;-47
2023/12/16 05:40:37;;;;;;;7.88;2.17;;;;;;;;;;4985741;28;20042;-48
2023/12/16 05:43:06;;;;;;;7.20;2.25;;;;;;;;;;4977689;28;20050;-48
2023/12/16 05:45:34;;;;;;;5.80;1.60;;;;;;;;;;4989366;28;20033;-47
2023/12/16 05:48:02;;;;;;;6.25;2.30;;;;;;;;;;4971038;28;20083;-47
2023/12/16 05:50:32;;;;;;;6.97;2.17;;;;;;;;;;4980815;28;20762;-47
2023/12/16 05:53:00;;;;;;;5.85;2.00;;;;;;;;;;4961305;28;20042;-47
2023/12/16 05:55:28;;;;;;;6.00;1.73;;;;;;;;;;4982861;28;20057;-48
2023/12/16 05:58:13;;;;;;;6.07;1.85;;;;;;;;;;4975587;28;20090;-47
2023/12/16 06:00:40;;;;;;;6.38;1.80;;;;;;;;;;4971193;28;20044;-48
2023/12/16 06:03:08;;;;;;;6.73;1.93;;;;;;;;;;4974841;28;20057;-47
2023/12/16 06:05:37;;;;;;;5.93;2.05;;;;;;;;;;4970486;28;20042;-46
2023/12/16 06:08:05;;;;;;;5.45;2.00;;;;;;;;;;4977295;28;20140;-46
2023/12/16 06:10:33;;;;;;;6.22;2.20;;;;;;;;;;4976578;28;20058;-47
2023/12/16 06:13:00;;;;;;;7.50;2.05;;;;;;;;;;4959228;28;20065;-50
2023/12/16 06:15:28;;;;;;;5.90;1.80;;;;;;;;;;4977388;28;20451;-47
2023/12/16 06:17:57;;;;;;;6.97;1.67;;;;;;;;;;4968439;28;20050;-50
2023/12/16 06:20:25;;;;;;;6.18;1.75;;;;;;;;;;4972761;28;20125;-52
2023/12/16 06:22:55;;;;;;;7.30;1.85;;;;;;;;;;4975742;28;20169;-48
2023/12/16 06:25:23;;;;;;;5.90;1.70;;;;;;;;;;4971745;28;20104;-47
2023/12/16 06:27:52;;;;;;;5.77;1.40;;;;;;;;;;4967733;28;20065;-47
2023/12/16 06:30:19;;;;;;;7.93;2.05;;;;;;;;;;4984238;28;20099;-49
2023/12/16 06:32:47;;;;;;;5.95;2.03;;;;;;;;;;4980846;28;20044;-48
2023/12/16 06:35:15;;;;;;;6.63;1.92;;;;;;;;;;4972003;28;20500;-47
2023/12/16 06:37:43;;;;;;;5.75;1.95;;;;;;;;;;4977099;28;20044;-46
2023/12/16 06:40:12;;;;;;;6.33;2.00;;;;;;;;;;4967260;28;20621;-48
2023/12/16 06:42:49;;;;;;;6.60;2.05;;;;;;;;;;4978600;28;20198;-46
2023/12/16 06:45:17;;;;;;;6.38;2.03;;;;;;;;;;4985510;28;20046;-47
2023/12/16 06:47:45;;;;;;;5.63;1.70;;;;;;;;;;4964847;28;20507;-46
2023/12/16 06:50:13;;;;;;;6.97;1.80;;;;;;;;;;4976468;28;20050;-51
2023/12/16 06:52:40;;;;;;;8.33;1.60;;;;;;;;;;4968689;28;20328;-49
2023/12/16 06:55:08;;;;;;;7.53;2.00;;;;;;;;;;4980303;28;20046;-50
2023/12/16 06:57:37;;;;;;;7.63;2.30;;;;;;;;;;4973273;28;22002;-48
2023/12/16 07:00:06;;;;;;;7.93;2.15;;;;;;;;;;4986503;28;20046;-47
2023/12/16 07:02:34;;;;;;;5.90;2.20;;;;;;;;;;4969308;28;20498;-48
2023/12/16 07:05:01;;;;;;;5.87;2.00;;;;;;;;;;4980616;28;20069;-46
2023/12/16 07:07:29;;;;;;;6.80;1.70;;;;;;;;;;4967279;28;20519;-48
2023/12/16 07:09:58;;;;;;;7.85;2.05;;;;;;;;;;4986271;28;20038;-49
2023/12/16 07:12:28;;;;;;;5.97;1.58;;;;;;;;;;4983952;28;20551;-48
2023/12/16 07:14:57;;;;;;;6.70;1.95;;;;;;;;;;4969504;28;20041;-49
2023/12/16 07:17:24;;;;;;;6.23;1.73;;;;;;;;;;4983786;28;20416;-51
2023/12/16 07:19:52;;;;;;;6.80;2.13;;;;;;;;;;4954235;28;20520;-52
2023/12/16 07:22:21;;;;;;;6.10;1.75;;;;;;;;;;4991772;28;20035;-47
2023/12/16 07:24:49;;;;;;;6.45;1.70;;;;;;;;;;4970036;28;20104;-46
2023/12/16 07:27:17;;;;;;;7.50;2.10;;;;;;;;;;4978478;28;20046;-45
2023/12/16 07:29:44;;;;;;;5.73;1.80;;;;;;;;;;4971580;28;20105;-45
2023/12/16 07:32:13;;;;;;;6.50;1.90;;;;;;;;;;4970647;28;20042;-46
2023/12/16 07:34:42;;;;;;;6.28;1.98;;;;;;;;;;4978260;28;20053;-47
2023/12/16 07:37:10;;;;;;;7.68;1.92;;;;;;;;;;4978217;28;20034;-45
2023/12/16 07:39:38;;;;;;;7.30;1.80;;;;;;;;;;4967818;28;20038;-47
2023/12/16 07:42:06;;;;;;;7.13;1.97;;;;;;;;;;4961410;28;20532;-47
2023/12/16 07:44:34;;;;;;;8.25;2.55;;;;;;;;;;4972501;28;20518;-47
2023/12/16 07:47:01;;;;;;;6.63;2.40;;;;;;;;;;4986766;28;20404;-47
2023/12/16 07:49:30;;;;;;;7.18;2.13;;;;;;;;;;4965353;28;20053;-48
2023/12/16 07:52:00;;;;;;;7.85;2.50;;;;;;;;;;4986185;28;20042;-49
2023/12/16 07:54:28;;;;;;;9.33;2.23;;;;;;;;;;4960184;28;20052;-48
2023/12/16 07:56:56;;;;;;;9.68;2.47;;;;;;;;;;4991308;28;20049;-49
2023/12/16 07:59:24;;;;;;;8.90;2.90;;;;;;;;;;4969028;28;20041;-46
2023/12/16 08:01:53;;;;;;;7.80;2.63;;;;;;;;;;4981489;28;20045;-47
2023/12/16 08:04:21;;;;;;;6.35;2.28;;;;;;;;;;4966168;28;20461;-46
2023/12/16 08:06:52;;;;;;;7.37;2.50;;;;;;;;;;4975893;28;20038;-49
2023/12/16 08:09:20;;;;;;;7.65;2.33;;;;;;;;;;4979044;28;20571;-47
2023/12/16 08:11:48;;;;;;;8.52;2.70;;;;;;;;;;4977771;28;20046;-49
2023/12/16 08:14:15;;;;;;;7.70;2.20;;;;;;;;;;4981218;28;20042;-47
2023/12/16 08:16:43;;;;;;;7.97;2.30;;;;;;;;;;4965071;28;20026;-48
2023/12/16 08:19:11;;;;;;;7.27;2.27;;;;;;;;;;4979606;28;20045;-49
2023/12/16 08:21:38;;;;;;;7.75;2.10;;;;;;;;;;4974630;28;20038;-46
2023/12/16 08:24:08;;;;;;;7.05;2.30;;;;;;;;;;4978973;28;24024;-49
2023/12/16 08:26:35;;;;;;;8.20;2.45;;;;;;;;;;4974824;28;21010;-47
2023/12/16 08:29:03;;;;;;;7.47;2.25;;;;;;;;;;4972832;28;20038;-48
2023/12/16 08:31:32;;;;;;;7.60;2.37;;;;;;;;;;4982391;28;20058;-49
2023/12/16 08:34:00;;;;;;;6.47;2.15;;;;;;;;;;4981282;28;20192;-45
2023/12/16 08:36:28;;;;;;;6.75;2.28;;;;;;;;;;4971305;28;20042;-45
2023/12/16 08:38:55;;;;;;;5.65;1.40;;;;;;;;;;4984033;28;20447;-46
2023/12/16 08:41:25;;;;;;;6.20;1.75;;;;;;;;;;4972375;28;20050;-47
2023/12/16 08:43:54;;;;;;;6.03;1.67;;;;;;;;;;4982995;28;20045;-46
2023/12/16 08:46:23;;;;;;;6.25;2.08;;;;;;;;;;4966144;28;20041;-47
2023/12/16 08:48:53;;;;;;;5.05;1.77;;;;;;;;;;4976433;28;20065;-45
2023/12/16 08:51:22;;;;;;;6.80;1.90;;;;;;;;;;4974978;28;20301;-45
2023/12/16 08:53:49;;;;;;;7.03;1.83;;;;;;;;;;4978937;28;20049;-47
2023/12/16 08:56:17;;;;;;;5.10;1.50;;;;;;;;;;4977751;28;20073;-49
2023/12/16 08:58:50;;;;;;;5.85;1.48;;;;;;;;;;4972908;28;20037;-50
2023/12/16 09:01:18;;;;;;;5.22;1.60;;;;;;;;;;4986503;28;20042;-47
2023/12/16 09:03:45;;;;;;;5.07;1.67;;;;;;;;;;4968315;28;20456;-50
2023/12/16 09:06:14;;;;;;;5.35;1.67;;;;;;;;;;4983880;28;20046;-47
2023/12/16 09:08:41;;;;;;;5.17;1.80;;;;;;;;;;4969787;28;20052;-48
2023/12/16 09:11:10;;;;;;;5.25;1.63;;;;;;;;;;4986464;28;20046;-45
2023/12/16 09:13:39;;;;;;;4.68;1.10;;;;;;;;;;4971778;28;20123;-47
2023/12/16 09:16:08;;;;;;;5.47;1.60;;;;;;;;;;4980638;28;20042;-47
2023/12/16 09:18:37;;;;;;;4.75;1.45;;;;;;;;;;4968486;28;21087;-45
2023/12/16 09:21:05;;;;;;;4.93;1.40;;;;;;;;;;4977326;28;20042;-48
2023/12/16 09:23:32;;;;;;;4.70;1.30;;;;;;;;;;4963630;28;20112;-49
2023/12/16 09:26:00;;;;;;;5.05;1.65;;;;;;;;;;4986275;28;20046;-48
2023/12/16 09:28:28;;;;;;;4.70;1.50;;;;;;;;;;4961681;28;20038;-48
2023/12/16 09:30:56;;;;;;;5.13;1.52;;;;;;;;;;4992043;28;20062;-49
2023/12/16 09:33:25;;;;;;;4.47;1.17;;;;;;;;;;4969684;28;21025;-47
2023/12/16 09:35:53;;;;;;;5.60;1.48;;;;;;;;;;4964533;28;20034;-49
2023/12/16 09:38:21;;;;;;;4.93;1.50;;;;;;;;;;4976558;28;20038;-50
2023/12/16 09:40:49;;;;;;;5.47;1.13;;;;;;;;;;4984249;28;20046;-47
2023/12/16 09:43:17;;;;;;;5.72;1.65;;;;;;;;;;4967345;28;20066;-48
2023/12/16 09:45:46;;;;;;;4.33;1.40;;;;;;;;;;4978474;28;20046;-49
2023/12/16 09:48:15;;;;;;;4.50;1.40;;;;;;;;;;4967658;28;20156;-47
2023/12/16 09:50:47;;;;;;;5.05;1.35;;;;;;;;;;4983526;28;20041;-45
2023/12/16 09:53:15;;;;;;;4.32;0.90;;;;;;;;;;4979501;28;20559;-49
2023/12/16 09:55:43;;;;;;;4.45;1.30;;;;;;;;;;4974405;28;20077;-46
2023/12/16 09:58:12;;;;;;;3.60;0.87;;;;;;;;;;4984305;28;20596;-47
2023/12/16 10:00:46;;;;;;;3.80;0.70;;;;;;;;;;4977714;28;21392;-45
2023/12/16 10:03:15;;;;;;;4.00;0.70;;;;;;;;;;4980018;28;20038;-47
2023/12/16 10:05:44;;;;;;;4.03;0.90;;;;;;;;;;4976270;28;20038;-44
2023/12/16 10:08:13;;;;;;;5.18;1.00;;;;;;;;;;4978097;28;20515;-47
2023/12/16 10:10:42;;;;;;;3.73;0.73;;;;;;;;;;4982558;28;20096;-46
2023/12/16 10:13:21;;;;;;;3.65;0.70;;;;;;;;;;4971489;28;20560;-45
2023/12/16 10:15:49;;;;;;;3.70;0.80;;;;;;;;;;4983508;28;20173;-45
2023/12/16 10:18:17;;;;;;;4.20;1.10;;;;;;;;;;4965610;28;20042;-45
2023/12/16 10:20:45;;;;;;;4.20;1.23;;;;;;;;;;4972039;28;20029;-49
2023/12/16 10:23:14;;;;;;;4.50;0.90;;;;;;;;;;4968151;28;20053;-49
2023/12/16 10:25:42;;;;;;;4.43;1.00;;;;;;;;;;4978539;28;20461;-46
2023/12/16 10:28:10;;;;;;;4.68;1.40;;;;;;;;;;4971220;28;20354;-46
2023/12/16 10:30:38;;;;;;;4.18;1.30;;;;;;;;;;4988140;28;20125;-49
2023/12/16 10:33:08;;;;;;;4.72;1.60;;;;;;;;;;4965198;28;20105;-47
2023/12/16 10:35:37;;;;;;;4.70;1.40;;;;;;;;;;4976225;28;20062;-47
2023/12/16 10:38:05;;;;;;;5.45;1.73;;;;;;;;;;4970671;28;20069;-47
2023/12/16 10:40:37;;;;;;;4.90;1.25;;;;;;;;;;4986101;28;20041;-47
2023/12/16 10:43:05;;;;;;;4.57;1.50;;;;;;;;;;4970439;28;20068;-49
2023/12/16 10:45:33;;;;;;;4.50;1.30;;;;;;;;;;4987837;28;20038;-47
2023/12/16 10:48:02;;;;;;;4.47;1.27;;;;;;;;;;4971752;28;20045;-47
2023/12/16 10:50:31;;;;;;;4.90;1.15;;;;;;;;;;4985869;28;20052;-50
2023/12/16 10:53:00;;;;;;;4.05;0.93;;;;;;;;;;4983313;28;20034;-47
2023/12/16 10:55:31;;;;;;;3.80;0.80;;;;;;;;;;4983568;28;20065;-47
2023/12/16 10:58:08;;;;;;;3.78;0.70;;;;;;;;;;4979662;28;20069;-46
2023/12/16 11:00:38;;;;;;;3.63;0.80;;;;;;;;;;4976502;28;20042;-47
2023/12/16 11:03:08;;;;;;;3.78;0.77;;;;;;;;;;4979892;28;20056;-50
2023/12/16 11:05:40;;;;;;;3.95;1.00;;;;;;;;;;4976445;28;20046;-46
2023/12/16 11:08:08;;;;;;;3.30;0.73;;;;;;;;;;4984093;28;20046;-46
2023/12/16 11:10:35;;;;;;;3.88;0.80;;;;;;;;;;4977323;28;20041;-47
2023/12/16 11:13:05;;;;;;;3.37;0.50;;;;;;;;;;4964198;28;20057;-49
2023/12/16 11:15:34;;;;;;;4.35;0.88;;;;;;;;;;4987168;28;20116;-46
2023/12/16 11:18:04;;;;;;;3.85;0.90;;;;;;;;;;4968384;28;20045;-46
2023/12/16 11:20:38;;;;;;;4.07;1.00;;;;;;;;;;4980516;28;20439;-48
2023/12/16 11:23:05;;;;;;;3.88;1.10;;;;;;;;;;4969597;28;20579;-47
2023/12/16 11:25:34;;;;;;;2.83;0.50;;;;;;;;;;4988677;28;20056;-46
2023/12/16 11:28:02;;;;;;;3.20;0.63;;;;;;;;;;4965997;28;20045;-50
2023/12/16 11:30:32;;;;;;;3.25;0.63;;;;;;;;;;4987497;28;20048;-47
2023/12/16 11:33:00;;;;;;;3.00;0.60;;;;;;;;;;4972384;28;20782;-47
2023/12/16 11:35:46;;;;;;;3.30;0.80;;;;;;;;;;4968568;28;20049;-47
2023/12/16 11:38:33;;;;;;;3.40;0.60;;;;;;;;;;4972360;28;20790;-46
2023/12/16 11:41:00;;;;;;;3.80;1.00;;;;;;;;;;4986414;28;20504;-48
2023/12/16 11:43:43;;;;;;;4.22;0.95;;;;;;;;;;4969562;28;20488;-46
2023/12/16 11:46:32;;;;;;;3.40;0.80;;;;;;;;;;4970385;28;20041;-46
2023/12/16 11:49:01;;;;;;;3.75;0.90;;;;;;;;;;4984807;28;20730;-48
2023/12/16 11:51:30;;;;;;;3.10;0.57;;;;;;;;;;4969156;28;20502;-47
2023/12/16 11:53:58;;;;;;;4.18;0.93;;;;;;;;;;4990918;28;20052;-48
2023/12/16 11:56:26;;;;;;;3.47;0.68;;;;;;;;;;4980704;28;20792;-47
2023/12/16 11:58:57;;;;;;;3.92;0.57;;;;;;;;;;4974899;28;20054;-50
2023/12/16 12:01:31;;;;;;;3.88;0.70;;;;;;;;;;4983982;28;20472;-51
2023/12/16 12:04:01;;;;;;;3.53;0.73;;;;;;;;;;4971359;28;20751;-48
2023/12/16 12:06:29;;;;;;;3.10;0.68;;;;;;;;;;4999200;28;20317;-47
2023/12/16 12:08:57;;;;;;;3.42;0.80;;;;;;;;;;4965190;28;20570;-46
2023/12/16 12:11:27;;;;;;;3.30;0.88;;;;;;;;;;4976058;28;20056;-46
2023/12/16 12:13:55;;;;;;;4.57;1.10;;;;;;;;;;4979452;28;20044;-49
2023/12/16 12:16:28;;;;;;;2.93;0.50;;;;;;;;;;4972422;28;20369;-49
2023/12/16 12:18:57;;;;;;;4.72;1.00;;;;;;;;;;4972606;28;20073;-48
2023/12/16 12:21:25;;;;;;;3.72;1.23;;;;;;;;;;4981161;28;20050;-46
2023/12/16 12:23:53;;;;;;;3.28;0.70;;;;;;;;;;4978209;28;20136;-46
2023/12/16 12:26:21;;;;;;;4.00;1.00;;;;;;;;;;4975699;28;20180;-46
2023/12/16 12:28:56;;;;;;;3.63;0.93;;;;;;;;;;4962687;28;20076;-45
2023/12/16 12:31:23;;;;;;;3.50;0.80;;;;;;;;;;4992703;28;20046;-46
2023/12/16 12:33:52;;;;;;;3.08;0.70;;;;;;;;;;4966863;28;20366;-45
2023/12/16 12:36:22;;;;;;;3.28;0.80;;;;;;;;;;4991108;28;20062;-46
2023/12/16 12:38:52;;;;;;;3.53;0.70;;;;;;;;;;4980800;28;20065;-45
2023/12/16 12:41:20;;;;;;;3.53;0.70;;;;;;;;;;4971997;28;20646;-45
2023/12/16 12:43:48;;;;;;;3.28;0.50;;;;;;;;;;4974469;28;20353;-46
2023/12/16 12:46:17;;;;;;;3.03;0.60;;;;;;;;;;4975424;28;21520;-47
2023/12/16 12:48:52;;;;;;;4.35;0.60;;;;;;;;;;4975966;28;20488;-47
2023/12/16 12:51:22;;;;;;;2.92;0.65;;;;;;;;;;4965943;28;20042;-45
2023/12/16 12:53:56;;;;;;;3.00;0.60;;;;;;;;;;4973178;28;20750;-45
2023/12/16 12:56:28;;;;;;;3.53;0.77;;;;;;;;;;4993460;28;20057;-48
2023/12/16 12:58:58;;;;;;;3.60;0.80;;;;;;;;;;4965216;28;20042;-47
2023/12/16 13:01:26;;;;;;;3.17;0.50;;;;;;;;;;4986559;28;20046;-45
2023/12/16 13:03:55;;;;;;;3.67;0.70;;;;;;;;;;4968775;28;20474;-45
2023/12/16 13:06:24;;;;;;;4.27;0.80;;;;;;;;;;4983023;28;20057;-45
2023/12/16 13:08:52;;;;;;;3.80;1.13;;;;;;;;;;4965866;28;20646;-46
2023/12/16 13:11:20;;;;;;;4.00;1.10;;;;;;;;;;4980698;28;20045;-46
2023/12/16 13:13:48;;;;;;;5.07;0.90;;;;;;;;;;4977540;28;20373;-46
2023/12/16 13:16:16;;;;;;;3.92;1.00;;;;;;;;;;4965553;28;20096;-45
2023/12/16 13:18:44;;;;;;;3.50;0.97;;;;;;;;;;4975555;28;20044;-46
2023/12/16 13:21:12;;;;;;;4.35;0.93;;;;;;;;;;4977127;28;20052;-45
2023/12/16 13:23:42;;;;;;;3.42;0.88;;;;;;;;;;4971317;28;20065;-45
2023/12/16 13:26:13;;;;;;;3.47;0.95;;;;;;;;;;4981433;28;20041;-49
2023/12/16 13:28:41;;;;;;;4.57;1.10;;;;;;;;;;4976988;28;20041;-47
2023/12/16 13:31:09;;;;;;;3.70;0.93;;;;;;;;;;4986537;28;20041;-46
2023/12/16 13:33:37;;;;;;;4.03;0.90;;;;;;;;;;4974350;28;20112;-48
2023/12/16 13:36:05;;;;;;;4.18;1.10;;;;;;;;;;4984749;28;20042;-47
2023/12/16 13:38:55;;;;;;;4.07;1.17;;;;;;;;;;4987925;28;20133;-48
2023/12/16 13:41:23;;;;;;;4.15;1.00;;;;;;;;;;4976570;28;20125;-49
2023/12/16 13:43:51;;;;;;;4.03;0.73;;;;;;;;;;4981026;28;20510;-46
2023/12/16 13:46:18;;;;;;;3.88;0.70;;;;;;;;;;4961601;28;20114;-48
2023/12/16 13:48:46;;;;;;;3.90;1.05;;;;;;;;;;4981578;28;20065;-49
2023/12/16 13:51:14;;;;;;;4.07;1.10;;;;;;;;;;4974392;28;21160;-47
2023/12/16 13:53:42;;;;;;;3.70;1.20;;;;;;;;;;4984540;28;20128;-46
2023/12/16 13:56:11;;;;;;;4.53;1.07;;;;;;;;;;4976918;28;20463;-47
2023/12/16 13:58:39;;;;;;;4.15;1.10;;;;;;;;;;4980783;28;20050;-48
2023/12/16 14:01:07;;;;;;;4.43;1.30;;;;;;;;;;4972111;28;20042;-46
2023/12/16 14:03:34;;;;;;;3.60;0.80;;;;;;;;;;4998496;28;20041;-48
2023/12/16 14:06:20;;;;;;;3.67;1.13;;;;;;;;;;4979845;28;20783;-48
2023/12/16 14:08:48;;;;;;;4.00;0.93;;;;;;;;;;4979934;28;20145;-49
2023/12/16 14:11:24;;;;;;;3.53;0.70;;;;;;;;;;4815598;28;10000791;-51
2023/12/16 14:13:51;;;;;;;3.30;0.80;;;;;;;;;;4644353;28;9999815;-48
2023/12/16 14:16:19;;;;;;;3.80;0.80;;;;;;;;;;4973445;28;20044;-47
2023/12/16 14:18:47;;;;;;;3.80;0.75;;;;;;;;;;4975053;28;20042;-49
2023/12/16 14:21:15;;;;;;;4.55;1.10;;;;;;;;;;4978563;28;20601;-46
2023/12/16 14:23:43;;;;;;;5.60;1.17;;;;;;;;;;4984204;28;20042;-49
2023/12/16 14:26:10;;;;;;;3.65;0.77;;;;;;;;;;4974228;28;20113;-46
2023/12/16 14:28:39;;;;;;;3.20;0.70;;;;;;;;;;4980554;28;20152;-46
2023/12/16 14:31:07;;;;;;;3.75;0.88;;;;;;;;;;4985743;28;20045;-46
2023/12/16 14:33:35;;;;;;;3.70;1.00;;;;;;;;;;4976820;28;20061;-48
2023/12/16 14:36:03;;;;;;;3.60;0.80;;;;;;;;;;4978425;28;20188;-49
2023/12/16 14:38:31;;;;;;;3.30;0.70;;;;;;;;;;4971080;28;20492;-48
2023/12/16 14:40:59;;;;;;;3.47;0.70;;;;;;;;;;4987409;28;20188;-47
2023/12/16 14:43:26;;;;;;;3.38;0.70;;;;;;;;;;4977391;28;20081;-46
2023/12/16 14:45:56;;;;;;;3.95;0.90;;;;;;;;;;4974275;28;20040;-46
2023/12/16 14:48:23;;;;;;;3.30;0.93;;;;;;;;;;4981420;28;20711;-48
2023/12/16 14:50:52;;;;;;;3.60;1.00;;;;;;;;;;4975460;28;20060;-51